sensor_id;sensor_type;location;lat;lon;timestamp;pressure;altitude;pressure_sealevel;temperature;humidity
55538;BME280;41383;51.418;7.286;2023-01-29T00:01:06;101225.13;;;0.89;66.41
55538;BME280;41383;51.418;7.286;2023-01-29T00:03:32;101213.69;;;0.78;66.54
55538;BME280;41383;51.418;7.286;2023-01-29T00:05:58;101218.22;;;0.86;66.94
55538;BME280;41383;51.418;7.286;2023-01-29T00:08:23;101210.34;;;0.85;66.47
55538;BME280;41383;51.418;7.286;2023-01-29T00:10:48;101205.84;;;0.93;65.99
55538;BME280;41383;51.418;7.286;2023-01-29T00:13:13;101207.84;;;0.91;66.46
55538;BME280;41383;51.418;7.286;2023-01-29T00:15:39;101204.16;;;0.92;66.02
55538;BME280;41383;51.418;7.286;2023-01-29T00:18:04;101201.13;;;0.96;66.28
55538;BME280;41383;51.418;7.286;2023-01-29T00:20:30;101199.28;;;0.96;65.76
55538;BME280;41383;51.418;7.286;2023-01-29T00:22:55;101193.91;;;0.96;65.05
55538;BME280;41383;51.418;7.286;2023-01-29T00:25:21;101190.22;;;0.89;65.76
55538;BME280;41383;51.418;7.286;2023-01-29T00:27:46;101188.03;;;0.92;66.02
55538;BME280;41383;51.418;7.286;2023-01-29T00:30:12;101185.84;;;0.88;65.92
55538;BME280;41383;51.418;7.286;2023-01-29T00:32:38;101182.31;;;0.96;65.69
55538;BME280;41383;51.418;7.286;2023-01-29T00:35:05;101177.97;;;1.03;65.42
55538;BME280;41383;51.418;7.286;2023-01-29T00:37:31;101180.19;;;1.08;65.23
55538;BME280;41383;51.418;7.286;2023-01-29T00:39:56;101189.06;;;1.08;65.42
55538;BME280;41383;51.418;7.286;2023-01-29T00:42:21;101186.53;;;1.15;65.05
55538;BME280;41383;51.418;7.286;2023-01-29T00:45:06;101185.53;;;1.08;64.70
55538;BME280;41383;51.418;7.286;2023-01-29T00:47:31;101196.97;;;1.01;65.27
55538;BME280;41383;51.418;7.286;2023-01-29T00:50:02;101192.09;;;1.05;64.90
55538;BME280;41383;51.418;7.286;2023-01-29T00:52:28;101182.00;;;1.07;65.05
55538;BME280;41383;51.418;7.286;2023-01-29T00:54:55;101185.88;;;1.04;65.18
55538;BME280;41383;51.418;7.286;2023-01-29T00:57:23;101179.31;;;0.90;65.14
55538;BME280;41383;51.418;7.286;2023-01-29T00:59:48;101179.63;;;1.04;65.26
55538;BME280;41383;51.418;7.286;2023-01-29T01:02:14;101183.34;;;1.03;64.82
55538;BME280;41383;51.418;7.286;2023-01-29T01:04:58;101183.84;;;1.07;64.59
55538;BME280;41383;51.418;7.286;2023-01-29T01:07:23;101191.25;;;1.04;64.89
55538;BME280;41383;51.418;7.286;2023-01-29T01:09:49;101195.91;;;0.94;65.29
55538;BME280;41383;51.418;7.286;2023-01-29T01:12:33;101198.63;;;1.02;65.18
55538;BME280;41383;51.418;7.286;2023-01-29T01:14:58;101203.50;;;1.07;64.78
55538;BME280;41383;51.418;7.286;2023-01-29T01:17:23;101209.06;;;1.06;65.01
55538;BME280;41383;51.418;7.286;2023-01-29T01:19:49;101204.63;;;0.88;65.02
55538;BME280;41383;51.418;7.286;2023-01-29T01:22:14;101207.31;;;0.71;65.36
55538;BME280;41383;51.418;7.286;2023-01-29T01:24:39;101204.22;;;0.57;65.42
55538;BME280;41383;51.418;7.286;2023-01-29T01:27:05;101198.81;;;0.49;65.86
55538;BME280;41383;51.418;7.286;2023-01-29T01:29:31;101193.31;;;0.59;66.25
55538;BME280;41383;51.418;7.286;2023-01-29T01:31:57;101185.91;;;0.44;66.29
55538;BME280;41383;51.418;7.286;2023-01-29T01:34:22;101183.13;;;0.63;66.55
55538;BME280;41383;51.418;7.286;2023-01-29T01:36:48;101174.06;;;0.72;66.16
55538;BME280;41383;51.418;7.286;2023-01-29T01:39:13;101153.25;;;0.74;66.40
55538;BME280;41383;51.418;7.286;2023-01-29T01:41:38;101149.72;;;0.65;65.95
55538;BME280;41383;51.418;7.286;2023-01-29T01:44:04;101126.75;;;0.63;66.11
55538;BME280;41383;51.418;7.286;2023-01-29T01:46:34;101141.00;;;0.72;66.21
55538;BME280;41383;51.418;7.286;2023-01-29T01:49:08;101155.28;;;0.72;65.99
55538;BME280;41383;51.418;7.286;2023-01-29T01:51:40;101144.34;;;0.74;66.34
55538;BME280;41383;51.418;7.286;2023-01-29T01:54:10;101148.06;;;0.81;66.55
55538;BME280;41383;51.418;7.286;2023-01-29T01:56:40;101154.13;;;0.83;66.12
55538;BME280;41383;51.418;7.286;2023-01-29T01:59:09;101152.25;;;0.84;66.09
55538;BME280;41383;51.418;7.286;2023-01-29T02:01:36;101168.38;;;0.84;66.50
55538;BME280;41383;51.418;7.286;2023-01-29T02:04:10;101167.38;;;0.85;66.17
55538;BME280;41383;51.418;7.286;2023-01-29T02:06:57;101155.59;;;0.77;66.57
55538;BME280;41383;51.418;7.286;2023-01-29T02:09:48;101167.72;;;0.73;66.67
55538;BME280;41383;51.418;7.286;2023-01-29T02:12:16;101166.34;;;0.77;66.61
55538;BME280;41383;51.418;7.286;2023-01-29T02:14:43;101165.69;;;0.75;66.23
55538;BME280;41383;51.418;7.286;2023-01-29T02:17:11;101167.00;;;0.79;66.43
55538;BME280;41383;51.418;7.286;2023-01-29T02:19:54;101165.34;;;0.78;66.38
55538;BME280;41383;51.418;7.286;2023-01-29T02:22:45;101159.66;;;0.73;66.20
55538;BME280;41383;51.418;7.286;2023-01-29T02:33:29;101178.09;;;0.76;66.37
55538;BME280;41383;51.418;7.286;2023-01-29T02:39:13;101173.56;;;0.68;66.34
55538;BME280;41383;51.418;7.286;2023-01-29T02:41:45;101186.50;;;0.73;66.52
55538;BME280;41383;51.418;7.286;2023-01-29T02:44:22;101176.09;;;0.78;66.44
55538;BME280;41383;51.418;7.286;2023-01-29T02:47:09;101179.94;;;0.76;66.21
55538;BME280;41383;51.418;7.286;2023-01-29T02:49:47;101186.16;;;0.76;66.38
55538;BME280;41383;51.418;7.286;2023-01-29T02:52:21;101191.69;;;0.75;65.86
55538;BME280;41383;51.418;7.286;2023-01-29T02:55:00;101180.75;;;0.68;66.16
55538;BME280;41383;51.418;7.286;2023-01-29T02:57:31;101173.06;;;0.65;66.31
55538;BME280;41383;51.418;7.286;2023-01-29T03:02:44;101183.44;;;0.68;66.11
55538;BME280;41383;51.418;7.286;2023-01-29T03:05:15;101168.66;;;0.64;66.43
55538;BME280;41383;51.418;7.286;2023-01-29T03:07:49;101182.06;;;0.55;66.62
55538;BME280;41383;51.418;7.286;2023-01-29T03:10:29;101181.94;;;0.65;66.46
55538;BME280;41383;51.418;7.286;2023-01-29T03:13:02;101174.41;;;0.69;66.32
55538;BME280;41383;51.418;7.286;2023-01-29T03:15:33;101182.75;;;0.57;66.25
55538;BME280;41383;51.418;7.286;2023-01-29T03:18:10;101178.41;;;0.65;66.27
55538;BME280;41383;51.418;7.286;2023-01-29T03:20:43;101179.25;;;0.65;66.34
55538;BME280;41383;51.418;7.286;2023-01-29T03:23:22;101178.75;;;0.70;66.61
55538;BME280;41383;51.418;7.286;2023-01-29T03:25:53;101175.25;;;0.78;66.28
55538;BME280;41383;51.418;7.286;2023-01-29T03:28:41;101176.44;;;0.75;66.52
55538;BME280;41383;51.418;7.286;2023-01-29T03:31:28;101171.72;;;0.69;66.24
55538;BME280;41383;51.418;7.286;2023-01-29T03:34:20;101176.38;;;0.58;66.37
55538;BME280;41383;51.418;7.286;2023-01-29T03:37:02;101180.91;;;0.58;67.05
55538;BME280;41383;51.418;7.286;2023-01-29T03:39:29;101179.91;;;0.67;66.64
55538;BME280;41383;51.418;7.286;2023-01-29T03:41:56;101178.41;;;0.65;65.95
55538;BME280;41383;51.418;7.286;2023-01-29T03:46:59;101173.91;;;0.74;66.39
55538;BME280;41383;51.418;7.286;2023-01-29T03:52:17;101170.38;;;0.65;66.22
55538;BME280;41383;51.418;7.286;2023-01-29T03:54:59;101159.94;;;0.62;66.46
55538;BME280;41383;51.418;7.286;2023-01-29T04:00:10;101147.13;;;0.30;67.16
55538;BME280;41383;51.418;7.286;2023-01-29T04:02:46;101146.13;;;0.40;67.37
55538;BME280;41383;51.418;7.286;2023-01-29T04:05:19;101149.34;;;0.52;66.85
55538;BME280;41383;51.418;7.286;2023-01-29T04:07:45;101148.84;;;0.48;67.02
55538;BME280;41383;51.418;7.286;2023-01-29T04:10:15;101142.44;;;0.41;67.18
55538;BME280;41383;51.418;7.286;2023-01-29T04:12:47;101143.13;;;0.34;67.62
55538;BME280;41383;51.418;7.286;2023-01-29T04:15:15;101141.06;;;0.28;68.12
55538;BME280;41383;51.418;7.286;2023-01-29T04:17:49;101143.97;;;0.52;67.97
55538;BME280;41383;51.418;7.286;2023-01-29T04:20:17;101134.13;;;0.69;67.19
55538;BME280;41383;51.418;7.286;2023-01-29T04:22:45;101134.13;;;0.69;66.86
55538;BME280;41383;51.418;7.286;2023-01-29T04:25:15;101134.13;;;0.69;66.91
55538;BME280;41383;51.418;7.286;2023-01-29T04:27:51;101127.59;;;0.80;66.79
55538;BME280;41383;51.418;7.286;2023-01-29T04:33:17;101120.72;;;0.69;66.27
55538;BME280;41383;51.418;7.286;2023-01-29T04:38:53;101123.53;;;0.59;67.03
55538;BME280;41383;51.418;7.286;2023-01-29T04:41:47;101108.44;;;0.66;66.77
55538;BME280;41383;51.418;7.286;2023-01-29T04:44:23;101120.66;;;0.52;67.22
55538;BME280;41383;51.418;7.286;2023-01-29T04:50:14;101120.34;;;0.64;66.89
55538;BME280;41383;51.418;7.286;2023-01-29T04:53:07;101106.28;;;0.78;66.59
55538;BME280;41383;51.418;7.286;2023-01-29T05:00:42;101098.72;;;0.82;67.12
55538;BME280;41383;51.418;7.286;2023-01-29T05:03:11;101099.56;;;0.91;66.56
55538;BME280;41383;51.418;7.286;2023-01-29T05:05:40;101113.66;;;0.76;66.82
55538;BME280;41383;51.418;7.286;2023-01-29T05:08:07;101112.00;;;0.75;66.81
55538;BME280;41383;51.418;7.286;2023-01-29T05:10:34;101110.63;;;0.88;67.06
55538;BME280;41383;51.418;7.286;2023-01-29T05:13:01;101100.75;;;0.97;66.55
55538;BME280;41383;51.418;7.286;2023-01-29T05:15:34;101089.50;;;0.85;66.84
55538;BME280;41383;51.418;7.286;2023-01-29T05:18:01;101077.25;;;0.90;67.20
55538;BME280;41383;51.418;7.286;2023-01-29T05:20:31;101082.97;;;0.87;67.14
55538;BME280;41383;51.418;7.286;2023-01-29T05:22:57;101077.59;;;0.87;66.87
55538;BME280;41383;51.418;7.286;2023-01-29T05:25:25;101069.19;;;0.90;67.02
55538;BME280;41383;51.418;7.286;2023-01-29T05:27:51;101071.19;;;0.63;67.37
55538;BME280;41383;51.418;7.286;2023-01-29T05:30:37;101059.09;;;0.76;67.33
55538;BME280;41383;51.418;7.286;2023-01-29T05:33:11;101064.97;;;0.79;67.20
55538;BME280;41383;51.418;7.286;2023-01-29T05:35:37;101064.66;;;0.83;67.06
55538;BME280;41383;51.418;7.286;2023-01-29T05:38:02;101066.19;;;0.93;67.32
55538;BME280;41383;51.418;7.286;2023-01-29T05:40:27;101061.63;;;0.94;66.48
55538;BME280;41383;51.418;7.286;2023-01-29T05:42:53;101064.66;;;0.83;66.88
55538;BME280;41383;51.418;7.286;2023-01-29T05:45:19;101066.19;;;0.77;67.02
55538;BME280;41383;51.418;7.286;2023-01-29T05:47:45;101064.66;;;0.83;66.85
55538;BME280;41383;51.418;7.286;2023-01-29T05:50:11;101067.00;;;0.94;67.25
55538;BME280;41383;51.418;7.286;2023-01-29T05:52:37;101065.16;;;1.03;66.73
55538;BME280;41383;51.418;7.286;2023-01-29T05:55:03;101072.06;;;0.97;66.74
55538;BME280;41383;51.418;7.286;2023-01-29T05:57:29;101068.03;;;1.01;66.90
55538;BME280;41383;51.418;7.286;2023-01-29T05:59:54;101074.72;;;0.80;67.17
55538;BME280;41383;51.418;7.286;2023-01-29T06:02:19;101078.09;;;0.83;67.78
55538;BME280;41383;51.418;7.286;2023-01-29T06:04:45;101083.78;;;0.88;67.45
55538;BME280;41383;51.418;7.286;2023-01-29T06:07:10;101089.69;;;0.91;67.25
55538;BME280;41383;51.418;7.286;2023-01-29T06:09:35;101097.88;;;0.98;67.16
55538;BME280;41383;51.418;7.286;2023-01-29T06:12:01;101089.81;;;0.98;67.53
55538;BME280;41383;51.418;7.286;2023-01-29T06:14:26;101113.00;;;0.91;67.41
55538;BME280;41383;51.418;7.286;2023-01-29T06:16:51;101105.09;;;0.98;67.20
55538;BME280;41383;51.418;7.286;2023-01-29T06:19:16;101109.81;;;0.87;67.23
55538;BME280;41383;51.418;7.286;2023-01-29T06:21:42;101112.66;;;0.94;67.20
55538;BME280;41383;51.418;7.286;2023-01-29T06:24:07;101114.50;;;1.10;67.32
55538;BME280;41383;51.418;7.286;2023-01-29T06:26:33;101121.88;;;1.08;67.19
55538;BME280;41383;51.418;7.286;2023-01-29T06:28:58;101126.09;;;0.94;67.42
55538;BME280;41383;51.418;7.286;2023-01-29T06:31:23;101115.34;;;1.11;67.87
55538;BME280;41383;51.418;7.286;2023-01-29T06:33:48;101113.16;;;1.06;67.18
55538;BME280;41383;51.418;7.286;2023-01-29T06:36:14;101115.34;;;1.11;67.44
55538;BME280;41383;51.418;7.286;2023-01-29T06:38:39;101121.38;;;1.04;67.13
55538;BME280;41383;51.418;7.286;2023-01-29T06:41:09;101107.63;;;0.99;67.12
55538;BME280;41383;51.418;7.286;2023-01-29T06:43:35;101087.31;;;1.13;67.75
55538;BME280;41383;51.418;7.286;2023-01-29T06:46:01;101101.91;;;1.02;67.31
55538;BME280;41383;51.418;7.286;2023-01-29T06:48:26;101108.81;;;1.13;67.70
55538;BME280;41383;51.418;7.286;2023-01-29T06:50:51;101112.34;;;1.14;67.03
55538;BME280;41383;51.418;7.286;2023-01-29T06:53:19;101107.63;;;0.99;67.49
55538;BME280;41383;51.418;7.286;2023-01-29T06:55:51;101112.34;;;1.06;67.51
55538;BME280;41383;51.418;7.286;2023-01-29T06:58:17;101112.16;;;1.15;67.52
55538;BME280;41383;51.418;7.286;2023-01-29T07:00:42;101112.66;;;1.19;68.01
55538;BME280;41383;51.418;7.286;2023-01-29T07:03:08;101117.00;;;1.20;67.56
55538;BME280;41383;51.418;7.286;2023-01-29T07:05:34;101108.47;;;1.16;67.34
55538;BME280;41383;51.418;7.286;2023-01-29T07:07:59;101114.69;;;1.17;67.45
55538;BME280;41383;51.418;7.286;2023-01-29T07:10:25;101114.00;;;1.23;67.74
55538;BME280;41383;51.418;7.286;2023-01-29T07:12:50;101121.41;;;1.21;67.61
55538;BME280;41383;51.418;7.286;2023-01-29T07:15:15;101111.31;;;1.15;67.75
55538;BME280;41383;51.418;7.286;2023-01-29T07:17:54;101115.03;;;1.06;68.09
55538;BME280;41383;51.418;7.286;2023-01-29T07:20:20;101109.47;;;1.07;67.83
55538;BME280;41383;51.418;7.286;2023-01-29T07:22:45;101121.88;;;1.08;68.12
55538;BME280;41383;51.418;7.286;2023-01-29T07:25:10;101126.09;;;1.11;68.28
55538;BME280;41383;51.418;7.286;2023-01-29T07:27:35;101123.41;;;1.11;67.83
55538;BME280;41383;51.418;7.286;2023-01-29T07:30:01;101122.41;;;1.12;67.94
55538;BME280;41383;51.418;7.286;2023-01-29T07:32:27;101107.63;;;1.08;68.58
55538;BME280;41383;51.418;7.286;2023-01-29T07:34:52;101106.28;;;0.87;68.91
55538;BME280;41383;51.418;7.286;2023-01-29T07:37:18;101096.22;;;0.89;68.77
55538;BME280;41383;51.418;7.286;2023-01-29T07:39:43;101098.56;;;1.00;68.66
55538;BME280;41383;51.418;7.286;2023-01-29T07:42:08;101097.88;;;0.98;68.62
55538;BME280;41383;51.418;7.286;2023-01-29T07:44:33;101098.72;;;0.90;68.93
55538;BME280;41383;51.418;7.286;2023-01-29T07:46:59;101090.84;;;0.89;68.71
55538;BME280;41383;51.418;7.286;2023-01-29T07:49:24;101090.66;;;0.82;69.20
55538;BME280;41383;51.418;7.286;2023-01-29T07:51:49;101099.75;;;0.81;69.09
55538;BME280;41383;51.418;7.286;2023-01-29T07:54:14;101096.88;;;0.91;69.57
55538;BME280;41383;51.418;7.286;2023-01-29T07:56:40;101095.88;;;0.92;69.15
55538;BME280;41383;51.418;7.286;2023-01-29T07:59:05;101087.13;;;1.07;69.19
55538;BME280;41383;51.418;7.286;2023-01-29T08:01:30;101095.03;;;1.08;68.89
55538;BME280;41383;51.418;7.286;2023-01-29T08:03:55;101078.91;;;1.08;69.10
55538;BME280;41383;51.418;7.286;2023-01-29T08:06:21;101078.09;;;0.91;68.95
55538;BME280;41383;51.418;7.286;2023-01-29T08:08:46;101090.50;;;0.75;70.03
55538;BME280;41383;51.418;7.286;2023-01-29T08:11:11;101090.19;;;0.87;69.81
55538;BME280;41383;51.418;7.286;2023-01-29T08:13:37;101091.16;;;0.94;69.42
55538;BME280;41383;51.418;7.286;2023-01-29T08:16:02;101079.56;;;1.02;69.30
55538;BME280;41383;51.418;7.286;2023-01-29T08:18:28;101088.97;;;0.98;69.51
55538;BME280;41383;51.418;7.286;2023-01-29T08:20:59;101073.88;;;0.88;69.86
55538;BME280;41383;51.418;7.286;2023-01-29T08:23:25;101077.75;;;0.86;70.13
55538;BME280;41383;51.418;7.286;2023-01-29T08:25:50;101079.06;;;0.81;70.15
55538;BME280;41383;51.418;7.286;2023-01-29T08:28:16;101080.78;;;0.83;70.24
55538;BME280;41383;51.418;7.286;2023-01-29T08:30:41;101088.47;;;0.94;69.88
55538;BME280;41383;51.418;7.286;2023-01-29T08:33:08;101083.59;;;1.14;69.81
55538;BME280;41383;51.418;7.286;2023-01-29T08:35:33;101076.75;;;1.12;69.09
55538;BME280;41383;51.418;7.286;2023-01-29T08:38:00;101072.03;;;1.14;69.19
55538;BME280;41383;51.418;7.286;2023-01-29T08:40:28;101080.09;;;1.14;69.57
55538;BME280;41383;51.418;7.286;2023-01-29T08:43:06;101074.06;;;1.12;69.56
55538;BME280;41383;51.418;7.286;2023-01-29T08:45:33;101077.41;;;0.97;69.99
55538;BME280;41383;51.418;7.286;2023-01-29T08:47:58;101074.38;;;0.92;70.09
55538;BME280;41383;51.418;7.286;2023-01-29T08:50:24;101067.84;;;0.95;70.39
55538;BME280;41383;51.418;7.286;2023-01-29T08:52:49;101070.69;;;0.93;70.15
55538;BME280;41383;51.418;7.286;2023-01-29T08:55:14;101064.66;;;0.99;70.33
55538;BME280;41383;51.418;7.286;2023-01-29T08:57:40;101064.97;;;1.21;69.82
55538;BME280;41383;51.418;7.286;2023-01-29T09:00:06;101058.91;;;1.19;69.36
55538;BME280;41383;51.418;7.286;2023-01-29T09:02:32;101062.59;;;1.18;69.32
55538;BME280;41383;51.418;7.286;2023-01-29T09:04:58;101053.72;;;1.26;68.97
55538;BME280;41383;51.418;7.286;2023-01-29T09:07:23;101055.91;;;1.14;69.56
55538;BME280;41383;51.418;7.286;2023-01-29T09:09:48;101050.38;;;1.07;69.58
55538;BME280;41383;51.418;7.286;2023-01-29T09:12:13;101054.22;;;1.13;69.72
55538;BME280;41383;51.418;7.286;2023-01-29T09:14:39;101046.16;;;1.13;70.04
55538;BME280;41383;51.418;7.286;2023-01-29T09:17:04;101040.78;;;1.30;69.72
55538;BME280;41383;51.418;7.286;2023-01-29T09:19:29;101046.44;;;1.35;69.39
55538;BME280;41383;51.418;7.286;2023-01-29T09:21:54;101046.34;;;1.20;69.86
55538;BME280;41383;51.418;7.286;2023-01-29T09:24:20;101040.59;;;1.23;70.32
55538;BME280;41383;51.418;7.286;2023-01-29T09:26:45;101038.94;;;1.30;70.18
55538;BME280;41383;51.418;7.286;2023-01-29T09:29:10;101034.84;;;1.34;69.65
55538;BME280;41383;51.418;7.286;2023-01-29T09:31:35;101035.72;;;1.35;69.79
55538;BME280;41383;51.418;7.286;2023-01-29T09:34:01;101037.41;;;1.36;70.20
55538;BME280;41383;51.418;7.286;2023-01-29T09:36:26;101024.44;;;1.48;70.11
55538;BME280;41383;51.418;7.286;2023-01-29T09:38:51;101020.22;;;1.45;69.62
55538;BME280;41383;51.418;7.286;2023-01-29T09:44:02;101022.06;;;1.45;70.03
55538;BME280;41383;51.418;7.286;2023-01-29T09:46:34;101020.88;;;1.56;69.64
55538;BME280;41383;51.418;7.286;2023-01-29T09:51:40;101021.91;;;1.46;70.15
55538;BME280;41383;51.418;7.286;2023-01-29T09:54:44;101017.06;;;1.33;70.21
55538;BME280;41383;51.418;7.286;2023-01-29T09:57:19;101017.06;;;1.33;71.00
55538;BME280;41383;51.418;7.286;2023-01-29T09:59:47;101019.78;;;1.25;70.76
55538;BME280;41383;51.418;7.286;2023-01-29T10:02:46;101023.31;;;1.25;70.21
55538;BME280;41383;51.418;7.286;2023-01-29T10:09:19;101027.34;;;1.30;70.56
55538;BME280;41383;51.418;7.286;2023-01-29T10:16:48;101032.38;;;1.24;69.67
55538;BME280;41383;51.418;7.286;2023-01-29T10:22:31;101034.66;;;1.53;70.09
55538;BME280;41383;51.418;7.286;2023-01-29T10:25:09;101027.38;;;1.61;69.84
55538;BME280;41383;51.418;7.286;2023-01-29T10:27:46;101032.59;;;1.63;69.27
55538;BME280;41383;51.418;7.286;2023-01-29T10:30:30;101026.31;;;1.79;69.01
55538;BME280;41383;51.418;7.286;2023-01-29T10:33:01;101027.78;;;1.90;69.54
55538;BME280;41383;51.418;7.286;2023-01-29T10:35:37;101025.34;;;1.72;68.46
55538;BME280;41383;51.418;7.286;2023-01-29T10:41:17;101002.25;;;1.86;69.60
55538;BME280;41383;51.418;7.286;2023-01-29T10:44:00;100998.28;;;1.65;69.71
55538;BME280;41383;51.418;7.286;2023-01-29T10:49:54;100983.97;;;1.73;69.32
55538;BME280;41383;51.418;7.286;2023-01-29T10:52:43;100992.22;;;1.71;68.59
55538;BME280;41383;51.418;7.286;2023-01-29T10:55:39;100983.06;;;1.89;69.11
55538;BME280;41383;51.418;7.286;2023-01-29T10:58:22;100976.44;;;2.00;68.70
55538;BME280;41383;51.418;7.286;2023-01-29T11:00:51;100975.19;;;2.11;67.62
55538;BME280;41383;51.418;7.286;2023-01-29T11:03:28;100977.69;;;1.89;67.87
55538;BME280;41383;51.418;7.286;2023-01-29T11:05:58;100973.59;;;1.93;67.83
55538;BME280;41383;51.418;7.286;2023-01-29T11:08:32;100975.06;;;2.04;68.17
55538;BME280;41383;51.418;7.286;2023-01-29T11:11:17;100964.53;;;1.94;67.78
55538;BME280;41383;51.418;7.286;2023-01-29T11:13:52;100958.94;;;2.04;67.99
55538;BME280;41383;51.418;7.286;2023-01-29T11:16:19;100947.72;;;2.16;67.85
55538;BME280;41383;51.418;7.286;2023-01-29T11:19:11;100950.28;;;1.85;68.34
55538;BME280;41383;51.418;7.286;2023-01-29T11:21:56;100954.56;;;2.03;67.68
55538;BME280;41383;51.418;7.286;2023-01-29T11:24:22;100953.25;;;2.22;67.74
55538;BME280;41383;51.418;7.286;2023-01-29T11:26:49;100957.78;;;2.22;67.28
55538;BME280;41383;51.418;7.286;2023-01-29T11:29:29;100965.63;;;2.32;67.21
55538;BME280;41383;51.418;7.286;2023-01-29T11:31:57;100962.63;;;2.27;67.35
55538;BME280;41383;51.418;7.286;2023-01-29T11:34:24;100939.78;;;2.46;68.27
55538;BME280;41383;51.418;7.286;2023-01-29T11:39:23;100934.50;;;2.53;66.94
55538;BME280;41383;51.418;7.286;2023-01-29T11:42:02;100931.25;;;2.58;67.05
55538;BME280;41383;51.418;7.286;2023-01-29T11:47:15;100924.44;;;2.47;66.69
55538;BME280;41383;51.418;7.286;2023-01-29T11:49:47;100912.09;;;2.37;66.76
55538;BME280;41383;51.418;7.286;2023-01-29T11:52:21;100913.94;;;2.37;67.25
55538;BME280;41383;51.418;7.286;2023-01-29T11:54:51;100900.00;;;2.33;67.33
55538;BME280;41383;51.418;7.286;2023-01-29T11:57:26;100893.91;;;2.39;66.78
55538;BME280;41383;51.418;7.286;2023-01-29T11:59:56;100876.38;;;2.43;67.37
55538;BME280;41383;51.418;7.286;2023-01-29T12:02:28;100873.03;;;2.41;66.46
55538;BME280;41383;51.418;7.286;2023-01-29T12:04:58;100871.81;;;2.05;67.52
55538;BME280;41383;51.418;7.286;2023-01-29T12:07:24;100876.78;;;2.17;67.98
55538;BME280;41383;51.418;7.286;2023-01-29T12:09:53;100865.38;;;2.30;67.41
55538;BME280;41383;51.418;7.286;2023-01-29T12:12:36;100866.97;;;2.39;67.45
55538;BME280;41383;51.418;7.286;2023-01-29T12:15:21;100855.94;;;2.49;67.20
55538;BME280;41383;51.418;7.286;2023-01-29T12:18:01;100856.72;;;2.58;66.87
55538;BME280;41383;51.418;7.286;2023-01-29T12:20:33;100840.34;;;2.75;67.01
55538;BME280;41383;51.418;7.286;2023-01-29T12:26:01;100823.91;;;2.70;66.89
55538;BME280;41383;51.418;7.286;2023-01-29T12:28:35;100817.78;;;2.61;66.65
55538;BME280;41383;51.418;7.286;2023-01-29T12:34:14;100798.78;;;2.62;67.07
55538;BME280;41383;51.418;7.286;2023-01-29T12:37:10;100780.94;;;2.76;66.79
55538;BME280;41383;51.418;7.286;2023-01-29T12:39:37;100770.66;;;2.87;66.43
55538;BME280;41383;51.418;7.286;2023-01-29T12:42:16;100768.56;;;2.82;66.25
55538;BME280;41383;51.418;7.286;2023-01-29T12:44:47;100762.16;;;2.68;66.20
55538;BME280;41383;51.418;7.286;2023-01-29T12:47:39;100766.16;;;2.72;66.93
55538;BME280;41383;51.418;7.286;2023-01-29T12:50:27;100757.69;;;2.75;67.09
55538;BME280;41383;51.418;7.286;2023-01-29T12:53:17;100743.69;;;3.02;66.51
55538;BME280;41383;51.418;7.286;2023-01-29T12:55:47;100743.94;;;3.07;66.07
55538;BME280;41383;51.418;7.286;2023-01-29T12:58:24;100743.56;;;2.88;65.58
55538;BME280;41383;51.418;7.286;2023-01-29T13:00:55;100735.59;;;2.80;65.80
55538;BME280;41383;51.418;7.286;2023-01-29T13:04:03;100742.19;;;2.77;66.23
55538;BME280;41383;51.418;7.286;2023-01-29T13:06:35;100735.59;;;2.80;65.98
55538;BME280;41383;51.418;7.286;2023-01-29T13:09:10;100736.28;;;2.52;66.53
55538;BME280;41383;51.418;7.286;2023-01-29T13:12:11;100737.59;;;2.56;66.82
55538;BME280;41383;51.418;7.286;2023-01-29T13:14:51;100727.97;;;2.68;66.44
55538;BME280;41383;51.418;7.286;2023-01-29T13:17:29;100733.53;;;2.82;66.31
55538;BME280;41383;51.418;7.286;2023-01-29T13:20:02;100736.34;;;2.74;66.13
55538;BME280;41383;51.418;7.286;2023-01-29T13:22:33;100727.09;;;2.98;66.49
55538;BME280;41383;51.418;7.286;2023-01-29T13:25:02;100735.72;;;2.94;66.27
55538;BME280;41383;51.418;7.286;2023-01-29T13:27:30;100738.47;;;2.78;66.19
55538;BME280;41383;51.418;7.286;2023-01-29T13:29:56;100741.31;;;2.92;65.59
55538;BME280;41383;51.418;7.286;2023-01-29T13:32:30;100736.47;;;3.02;65.46
55538;BME280;41383;51.418;7.286;2023-01-29T13:35:02;100750.16;;;2.86;64.84
55538;BME280;41383;51.418;7.286;2023-01-29T13:37:39;100745.97;;;2.83;65.80
55538;BME280;41383;51.418;7.286;2023-01-29T13:40:17;100752.19;;;2.84;65.98
55538;BME280;41383;51.418;7.286;2023-01-29T13:42:46;100749.50;;;2.99;65.89
55538;BME280;41383;51.418;7.286;2023-01-29T13:47:50;100740.88;;;2.73;65.59
55538;BME280;41383;51.418;7.286;2023-01-29T13:52:44;100742.31;;;2.54;66.03
55538;BME280;41383;51.418;7.286;2023-01-29T14:02:41;100746.81;;;2.68;66.11
55538;BME280;41383;51.418;7.286;2023-01-29T14:08:04;100737.16;;;3.11;65.08
55538;BME280;41383;51.418;7.286;2023-01-29T14:10:32;100736.78;;;2.92;65.42
55538;BME280;41383;51.418;7.286;2023-01-29T14:15:35;100722.38;;;2.85;65.77
55538;BME280;41383;51.418;7.286;2023-01-29T14:20:39;100714.69;;;2.67;67.01
55538;BME280;41383;51.418;7.286;2023-01-29T14:25:44;100718.88;;;2.70;65.86
55538;BME280;41383;51.418;7.286;2023-01-29T14:28:22;100718.44;;;2.51;66.61
55538;BME280;41383;51.418;7.286;2023-01-29T14:30:49;100715.00;;;2.57;66.33
55538;BME280;41383;51.418;7.286;2023-01-29T14:35:49;100712.69;;;2.39;67.32
55538;BME280;41383;51.418;7.286;2023-01-29T14:38:15;100728.75;;;2.62;67.19
55538;BME280;41383;51.418;7.286;2023-01-29T14:40:42;100714.91;;;2.50;67.20
55538;BME280;41383;51.418;7.286;2023-01-29T14:43:17;100716.69;;;2.58;66.93
55538;BME280;41383;51.418;7.286;2023-01-29T14:45:46;100713.81;;;2.60;66.69
55538;BME280;41383;51.418;7.286;2023-01-29T14:50:57;100717.16;;;2.47;66.50
55538;BME280;41383;51.418;7.286;2023-01-29T14:53:29;100708.53;;;2.36;67.00
55538;BME280;41383;51.418;7.286;2023-01-29T14:56:02;100709.47;;;2.43;67.16
55538;BME280;41383;51.418;7.286;2023-01-29T14:58:42;100698.25;;;2.40;67.05